createdAt,value
2023-01-04T00:00:50.710Z,1012.1
2023-01-04T00:05:56.537Z,1012.1
2023-01-04T00:11:02.625Z,1012.1
2023-01-04T00:16:08.805Z,1011.9
2023-01-04T00:21:14.685Z,1011.9
2023-01-04T00:26:20.773Z,1011.8
2023-01-04T00:31:26.854Z,1011.7
2023-01-04T00:36:32.837Z,1011.6
2023-01-04T00:46:45.056Z,1011.4
2023-01-04T00:51:50.993Z,1011.2
2023-01-04T00:56:57.098Z,1011.3
2023-01-04T01:02:03.186Z,1011.2
2023-01-04T01:07:09.164Z,1011.2
2023-01-04T01:12:15.245Z,1011.1
2023-01-04T01:17:21.272Z,1011.1
2023-01-04T01:22:27.334Z,1010.9
2023-01-04T01:27:33.385Z,1010.9
2023-01-04T01:32:39.446Z,1010.8
2023-01-04T01:37:45.492Z,1010.8
2023-01-04T01:42:51.548Z,1010.7
2023-01-04T01:47:57.602Z,1010.7
2023-01-04T01:53:03.632Z,1010.6
2023-01-04T01:58:09.718Z,1010.5
2023-01-04T02:03:15.930Z,1010.3
2023-01-04T02:08:21.818Z,1010.3
2023-01-04T02:13:27.896Z,1010.3
2023-01-04T02:18:33.911Z,1010.3
2023-01-04T02:23:39.954Z,1010.3
2023-01-04T02:28:46.032Z,1010.1
2023-01-04T02:33:52.038Z,1010.1
2023-01-04T02:38:58.116Z,1010
2023-01-04T02:44:04.213Z,1010
2023-01-04T02:49:10.236Z,1009.9
2023-01-04T02:54:16.289Z,1009.7
2023-01-04T02:59:22.339Z,1009.7
2023-01-04T03:04:28.373Z,1009.6
2023-01-04T03:09:34.460Z,1009.6
2023-01-04T03:14:40.513Z,1009.5
2023-01-04T03:19:46.612Z,1009.4
2023-01-04T03:24:52.739Z,1009.3
2023-01-04T03:29:58.687Z,1009.3
2023-01-04T03:35:04.704Z,1009.2
2023-01-04T03:40:10.773Z,1009.2
2023-01-04T03:45:16.829Z,1009
2023-01-04T03:50:22.876Z,1009
2023-01-04T03:55:28.910Z,1009.1
2023-01-04T04:00:35.081Z,1008.9
2023-01-04T04:05:41.016Z,1008.9
2023-01-04T04:10:47.068Z,1008.8
2023-01-04T04:15:53.161Z,1008.7
2023-01-04T04:20:59.198Z,1008.7
2023-01-04T04:26:05.244Z,1008.7
2023-01-04T04:31:11.353Z,1008.7
2023-01-04T04:36:17.318Z,1008.7
2023-01-04T04:41:23.395Z,1008.7
2023-01-04T04:46:29.536Z,1008.6
2023-01-04T04:51:35.550Z,1008.5
2023-01-04T04:56:41.539Z,1008.5
2023-01-04T05:01:47.839Z,1008.4
2023-01-04T05:06:53.653Z,1008.3
2023-01-04T05:11:59.705Z,1008.3
2023-01-04T05:17:05.969Z,1008.3
2023-01-04T05:27:19.741Z,1008.2
2023-01-04T05:32:25.825Z,1008
2023-01-04T05:37:31.848Z,1008.1
2023-01-04T05:42:37.903Z,1008.1
2023-01-04T05:47:43.965Z,1007.9
2023-01-04T05:52:50.022Z,1008
2023-01-04T05:57:56.062Z,1007.7
2023-01-04T06:03:02.261Z,1007.7
2023-01-04T06:08:08.153Z,1007.5
2023-01-04T06:13:14.204Z,1007.6
2023-01-04T06:18:20.407Z,1007.5
2023-01-04T06:23:26.316Z,1007.5
2023-01-04T06:28:37.164Z,1007.5
2023-01-04T06:33:38.464Z,1007.4
2023-01-04T06:38:44.488Z,1007.4
2023-01-04T06:43:51.638Z,1007.4
2023-01-04T06:48:57.696Z,1007.3
2023-01-04T06:54:03.768Z,1007.2
2023-01-04T06:59:09.801Z,1007.2
2023-01-04T07:04:17.029Z,1007.4
2023-01-04T07:09:23.035Z,1007.2
2023-01-04T07:14:30.220Z,1007.2
2023-01-04T07:19:36.295Z,1007.2
2023-01-04T07:24:43.415Z,1007.2
2023-01-04T07:29:49.471Z,1007.2
2023-01-04T07:34:55.532Z,1007.1
2023-01-04T07:40:01.582Z,1007.2
2023-01-04T07:45:07.619Z,1007.2
2023-01-04T07:50:13.763Z,1007.2
2023-01-04T07:55:20.848Z,1007.2
2023-01-04T08:00:26.964Z,1007.3
2023-01-04T08:05:34.138Z,1007.3
2023-01-04T08:10:40.137Z,1007.3
2023-01-04T08:15:46.243Z,1007.2
2023-01-04T08:20:58.305Z,1007.3
2023-01-04T08:25:59.422Z,1007.3
2023-01-04T08:31:05.558Z,1007.3
2023-01-04T08:36:12.659Z,1007.3
2023-01-04T08:41:55.638Z,1007.2
2023-01-04T08:46:24.782Z,1007.2
2023-01-04T08:51:30.809Z,1007.1
2023-01-04T08:56:37.975Z,1007.1
2023-01-04T09:01:44.188Z,1006.9
2023-01-04T09:06:50.132Z,1007
2023-01-04T09:11:56.113Z,1007
2023-01-04T09:17:03.309Z,1006.9
2023-01-04T09:22:09.395Z,1007.1
2023-01-04T09:27:16.529Z,1007.1
2023-01-04T09:32:22.564Z,1007
2023-01-04T09:37:28.684Z,1006.9
2023-01-04T09:42:37.511Z,1006.8
2023-01-04T09:47:41.891Z,1007
2023-01-04T09:52:47.938Z,1006.9
2023-01-04T09:57:55.089Z,1006.8
2023-01-04T10:03:01.265Z,1006.7
2023-01-04T10:08:08.361Z,1006.7
2023-01-04T10:13:14.335Z,1006.7
2023-01-04T10:23:27.604Z,1006.7
2023-01-04T10:28:33.641Z,1006.8
2023-01-04T10:33:39.691Z,1006.6
2023-01-04T10:38:46.884Z,1006.6
2023-01-04T10:44:09.863Z,1006.7
2023-01-04T10:49:00.120Z,1006.5
2023-01-04T10:54:06.151Z,1006.4
2023-01-04T10:59:13.361Z,1006.4
2023-01-04T11:04:19.369Z,1006.3
2023-01-04T11:09:26.549Z,1006.2
2023-01-04T11:14:37.249Z,1006.1
2023-01-04T11:19:39.786Z,1006.1
2023-01-04T11:25:00.391Z,1006.2
2023-01-04T11:29:51.844Z,1006.1
2023-01-04T11:34:57.925Z,1006
2023-01-04T11:40:03.985Z,1006
2023-01-04T11:45:10.062Z,1005.9
2023-01-04T11:50:16.072Z,1005.9
2023-01-04T11:55:22.157Z,1005.8
2023-01-04T12:00:29.308Z,1006
2023-01-04T12:05:35.364Z,1005.9
2023-01-04T12:10:41.517Z,1005.7
2023-01-04T12:15:47.450Z,1005.7
2023-01-04T12:20:53.512Z,1005.9
2023-01-04T12:25:59.638Z,1005.5
2023-01-04T12:31:05.635Z,1005.5
2023-01-04T12:36:11.679Z,1005.6
2023-01-04T12:41:17.745Z,1005.6
2023-01-04T12:46:23.851Z,1005.5
2023-01-04T12:51:31.686Z,1005.5
2023-01-04T12:56:35.911Z,1005.4
2023-01-04T13:01:42.228Z,1005.2
2023-01-04T13:06:48.005Z,1005.1
2023-01-04T13:11:54.091Z,1005.2
2023-01-04T13:17:00.267Z,1005.3
2023-01-04T13:22:06.135Z,1005.4
2023-01-04T13:27:12.222Z,1005.2
2023-01-04T13:32:18.289Z,1005.5
2023-01-04T13:37:24.311Z,1005.2
2023-01-04T13:42:30.375Z,1005.1
2023-01-04T13:47:36.403Z,1005.2
2023-01-04T13:52:58.389Z,1005
2023-01-04T13:57:48.621Z,1005.2
2023-01-04T14:02:54.783Z,1005
2023-01-04T14:08:00.613Z,1005
2023-01-04T14:13:06.703Z,1004.9
2023-01-04T14:18:12.703Z,1005.1
2023-01-04T14:23:21.335Z,1004.9
2023-01-04T14:28:25.278Z,1004.8
2023-01-04T14:33:30.872Z,1004.9
2023-01-04T14:38:36.918Z,1004.8
2023-01-04T14:43:43.003Z,1005
2023-01-04T14:48:49.026Z,1004.8
2023-01-04T14:53:55.098Z,1004.9
2023-01-04T14:59:01.148Z,1004.9
2023-01-04T15:04:07.216Z,1004.9
2023-01-04T15:09:13.238Z,1004.9
2023-01-04T15:14:19.328Z,1004.9
2023-01-04T15:19:25.343Z,1004.9
2023-01-04T15:24:31.394Z,1004.9
2023-01-04T15:29:37.502Z,1004.8
2023-01-04T15:34:46.985Z,1004.8
2023-01-04T15:39:49.556Z,1004.8
2023-01-04T15:44:55.641Z,1004.8
2023-01-04T15:50:01.682Z,1004.8
2023-01-04T15:55:07.716Z,1004.6
2023-01-04T16:00:13.801Z,1004.7
2023-01-04T16:05:19.820Z,1004.5
2023-01-04T16:10:25.892Z,1004.6
2023-01-04T16:15:31.952Z,1004.5
2023-01-04T16:20:38.002Z,1004.6
2023-01-04T16:25:44.075Z,1004.5
2023-01-04T16:30:50.123Z,1004.5
2023-01-04T16:35:57.669Z,1004.5
2023-01-04T16:41:02.191Z,1004.6
2023-01-04T16:46:08.279Z,1004.5
2023-01-04T16:51:14.321Z,1004.7
2023-01-04T16:56:20.335Z,1004.6
2023-01-04T17:01:26.710Z,1004.6
2023-01-04T17:06:32.480Z,1004.4
2023-01-04T17:12:19.055Z,1004.3
2023-01-04T17:16:44.626Z,1004.4
2023-01-04T17:21:50.604Z,1004.6
2023-01-04T17:26:56.703Z,1004.7
2023-01-04T17:32:02.832Z,1004.7
2023-01-04T17:37:08.793Z,1004.7
2023-01-04T17:42:14.842Z,1004.7
2023-01-04T17:47:20.897Z,1004.5
2023-01-04T17:52:31.348Z,1004.5
2023-01-04T17:57:32.996Z,1004.5
2023-01-04T18:02:39.151Z,1004.7
2023-01-04T18:07:45.118Z,1004.9
2023-01-04T18:12:51.144Z,1004.9
2023-01-04T18:17:57.267Z,1004.9
2023-01-04T18:23:03.243Z,1004.9
2023-01-04T18:28:09.285Z,1005
2023-01-04T18:33:15.364Z,1005
2023-01-04T18:38:21.386Z,1004.9
2023-01-04T18:43:27.448Z,1004.9
2023-01-04T18:48:33.560Z,1005.1
2023-01-04T18:53:39.573Z,1005
2023-01-04T18:58:45.600Z,1005.1
2023-01-04T19:03:51.692Z,1005.1
2023-01-04T19:09:02.936Z,1004.9
2023-01-04T19:14:03.818Z,1004.8
2023-01-04T19:19:09.857Z,1005
2023-01-04T19:24:15.896Z,1005.1
2023-01-04T19:29:21.943Z,1004.9
2023-01-04T19:34:28.012Z,1004.9
2023-01-04T19:39:34.044Z,1005.2
2023-01-04T19:44:40.076Z,1005.1
2023-01-04T19:49:46.188Z,1005.1
2023-01-04T19:54:52.207Z,1004.9
2023-01-04T19:59:58.247Z,1005.1
2023-01-04T20:05:04.338Z,1005.2
2023-01-04T20:10:14.167Z,1005.2
2023-01-04T20:15:16.435Z,1005.1
2023-01-04T20:20:22.503Z,1005.3
2023-01-04T20:25:28.520Z,1005.4
2023-01-04T20:30:34.666Z,1005.5
2023-01-04T20:35:40.640Z,1005.5
2023-01-04T20:40:46.699Z,1005.5
2023-01-04T20:45:52.809Z,1005.5
2023-01-04T20:50:58.854Z,1005.3
2023-01-04T20:56:04.841Z,1005.5
2023-01-04T21:01:11.017Z,1005.6
2023-01-04T21:06:16.988Z,1005.6
2023-01-04T21:11:23.022Z,1005.6
2023-01-04T21:16:29.053Z,1005.6
2023-01-04T21:21:35.183Z,1005.7
2023-01-04T21:26:41.163Z,1005.7
2023-01-04T21:31:47.239Z,1005.7
2023-01-04T21:36:53.329Z,1005.7
2023-01-04T21:41:59.339Z,1005.7
2023-01-04T21:47:05.395Z,1005.7
2023-01-04T21:52:11.478Z,1005.6
2023-01-04T21:57:17.498Z,1005.5
2023-01-04T22:02:23.637Z,1005.6
2023-01-04T22:07:29.713Z,1005.5
2023-01-04T22:12:35.634Z,1005.5
2023-01-04T22:17:42.799Z,1005.6
2023-01-04T22:22:48.884Z,1005.5
2023-01-04T22:27:56.036Z,1005.5
2023-01-04T22:33:02.094Z,1005.5
2023-01-04T22:38:09.298Z,1005.5
2023-01-04T22:43:15.321Z,1005.5
2023-01-04T22:48:21.365Z,1005.6
2023-01-04T22:53:27.438Z,1005.6
2023-01-04T22:58:34.595Z,1005.7
2023-01-04T23:03:40.749Z,1005.8
2023-01-04T23:08:46.756Z,1005.7
2023-01-04T23:13:52.745Z,1005.7
2023-01-04T23:18:58.811Z,1005.7
2023-01-04T23:24:04.896Z,1005.7
2023-01-04T23:29:10.900Z,1005.8
2023-01-04T23:34:16.953Z,1005.8
2023-01-04T23:39:24.159Z,1005.8
2023-01-04T23:44:30.181Z,1005.8
2023-01-04T23:49:37.336Z,1005.8
2023-01-04T23:54:43.448Z,1005.8
2023-01-04T23:59:50.588Z,1005.7
